sensor_id;sensor_type;location;lat;lon;timestamp;P1;durP1;ratioP1;P2;durP2;ratioP2
16272;SDS011;8244;50.044;9.006;2024-03-08T00:02:49;21.97;;;13.53;;
16272;SDS011;8244;50.044;9.006;2024-03-08T00:07:51;23.53;;;13.17;;
16272;SDS011;8244;50.044;9.006;2024-03-08T00:12:54;25.17;;;12.73;;
16272;SDS011;8244;50.044;9.006;2024-03-08T00:17:57;22.87;;;13.27;;
16272;SDS011;8244;50.044;9.006;2024-03-08T00:22:59;22.17;;;13.20;;
16272;SDS011;8244;50.044;9.006;2024-03-08T00:28:02;19.90;;;13.00;;
16272;SDS011;8244;50.044;9.006;2024-03-08T00:33:05;21.00;;;12.13;;
16272;SDS011;8244;50.044;9.006;2024-03-08T00:38:06;21.27;;;13.57;;
16272;SDS011;8244;50.044;9.006;2024-03-08T00:43:09;20.97;;;13.10;;
16272;SDS011;8244;50.044;9.006;2024-03-08T00:48:11;21.73;;;13.57;;
16272;SDS011;8244;50.044;9.006;2024-03-08T00:53:14;24.10;;;13.30;;
16272;SDS011;8244;50.044;9.006;2024-03-08T00:58:18;23.67;;;13.83;;
16272;SDS011;8244;50.044;9.006;2024-03-08T01:03:20;20.87;;;12.83;;
16272;SDS011;8244;50.044;9.006;2024-03-08T01:08:21;21.33;;;13.47;;
16272;SDS011;8244;50.044;9.006;2024-03-08T01:13:25;23.83;;;13.50;;
16272;SDS011;8244;50.044;9.006;2024-03-08T01:18:27;22.57;;;13.73;;
16272;SDS011;8244;50.044;9.006;2024-03-08T01:23:30;22.10;;;13.47;;
16272;SDS011;8244;50.044;9.006;2024-03-08T01:28:33;22.53;;;13.03;;
16272;SDS011;8244;50.044;9.006;2024-03-08T01:33:35;23.40;;;13.37;;
16272;SDS011;8244;50.044;9.006;2024-03-08T01:38:37;22.93;;;13.77;;
16272;SDS011;8244;50.044;9.006;2024-03-08T01:43:40;26.53;;;14.00;;
16272;SDS011;8244;50.044;9.006;2024-03-08T01:48:42;22.83;;;13.90;;
16272;SDS011;8244;50.044;9.006;2024-03-08T01:53:44;23.87;;;13.10;;
16272;SDS011;8244;50.044;9.006;2024-03-08T01:58:49;23.03;;;14.13;;
16272;SDS011;8244;50.044;9.006;2024-03-08T02:03:51;24.20;;;15.17;;
16272;SDS011;8244;50.044;9.006;2024-03-08T02:08:53;23.77;;;14.30;;
16272;SDS011;8244;50.044;9.006;2024-03-08T02:13:56;25.33;;;15.20;;
16272;SDS011;8244;50.044;9.006;2024-03-08T02:18:58;24.97;;;14.50;;
16272;SDS011;8244;50.044;9.006;2024-03-08T02:24:01;26.67;;;14.87;;
16272;SDS011;8244;50.044;9.006;2024-03-08T02:29:04;24.87;;;14.77;;
16272;SDS011;8244;50.044;9.006;2024-03-08T02:34:06;27.53;;;15.23;;
16272;SDS011;8244;50.044;9.006;2024-03-08T02:39:09;25.57;;;15.83;;
16272;SDS011;8244;50.044;9.006;2024-03-08T02:44:11;26.30;;;15.17;;
16272;SDS011;8244;50.044;9.006;2024-03-08T02:49:15;27.97;;;14.97;;
16272;SDS011;8244;50.044;9.006;2024-03-08T02:54:18;28.43;;;16.10;;
16272;SDS011;8244;50.044;9.006;2024-03-08T02:59:20;27.50;;;15.70;;
16272;SDS011;8244;50.044;9.006;2024-03-08T03:04:23;28.17;;;16.43;;
16272;SDS011;8244;50.044;9.006;2024-03-08T03:09:26;26.37;;;15.80;;
16272;SDS011;8244;50.044;9.006;2024-03-08T03:14:28;29.27;;;16.43;;
16272;SDS011;8244;50.044;9.006;2024-03-08T03:19:30;24.00;;;14.77;;
16272;SDS011;8244;50.044;9.006;2024-03-08T03:24:33;28.53;;;15.90;;
16272;SDS011;8244;50.044;9.006;2024-03-08T03:29:38;28.43;;;15.70;;
16272;SDS011;8244;50.044;9.006;2024-03-08T03:34:42;28.30;;;15.13;;
16272;SDS011;8244;50.044;9.006;2024-03-08T03:39:45;26.13;;;15.97;;
16272;SDS011;8244;50.044;9.006;2024-03-08T03:44:49;27.00;;;15.60;;
16272;SDS011;8244;50.044;9.006;2024-03-08T03:49:51;25.43;;;15.43;;
16272;SDS011;8244;50.044;9.006;2024-03-08T03:54:55;25.67;;;15.63;;
16272;SDS011;8244;50.044;9.006;2024-03-08T03:59:58;31.13;;;16.50;;
16272;SDS011;8244;50.044;9.006;2024-03-08T04:04:59;25.37;;;15.70;;
16272;SDS011;8244;50.044;9.006;2024-03-08T04:10:04;26.87;;;15.67;;
16272;SDS011;8244;50.044;9.006;2024-03-08T04:15:07;29.67;;;15.67;;
16272;SDS011;8244;50.044;9.006;2024-03-08T04:20:11;28.00;;;15.40;;
16272;SDS011;8244;50.044;9.006;2024-03-08T04:25:15;30.13;;;16.33;;
16272;SDS011;8244;50.044;9.006;2024-03-08T04:30:18;28.03;;;16.63;;
16272;SDS011;8244;50.044;9.006;2024-03-08T04:35:21;27.83;;;16.13;;
16272;SDS011;8244;50.044;9.006;2024-03-08T04:40:24;27.37;;;16.40;;
16272;SDS011;8244;50.044;9.006;2024-03-08T04:45:26;25.53;;;16.07;;
16272;SDS011;8244;50.044;9.006;2024-03-08T04:50:28;31.00;;;17.60;;
16272;SDS011;8244;50.044;9.006;2024-03-08T04:55:31;28.47;;;17.07;;
16272;SDS011;8244;50.044;9.006;2024-03-08T05:00:33;30.27;;;17.90;;
16272;SDS011;8244;50.044;9.006;2024-03-08T05:05:35;32.63;;;17.63;;
16272;SDS011;8244;50.044;9.006;2024-03-08T05:10:39;29.47;;;16.60;;
16272;SDS011;8244;50.044;9.006;2024-03-08T05:15:41;29.33;;;17.43;;
16272;SDS011;8244;50.044;9.006;2024-03-08T05:20:44;28.10;;;16.63;;
16272;SDS011;8244;50.044;9.006;2024-03-08T05:25:47;29.67;;;17.63;;
16272;SDS011;8244;50.044;9.006;2024-03-08T05:30:49;27.17;;;16.87;;
16272;SDS011;8244;50.044;9.006;2024-03-08T05:35:51;31.73;;;17.07;;
16272;SDS011;8244;50.044;9.006;2024-03-08T05:40:55;32.73;;;18.00;;
16272;SDS011;8244;50.044;9.006;2024-03-08T05:45:57;33.27;;;18.90;;
16272;SDS011;8244;50.044;9.006;2024-03-08T05:50:59;30.43;;;17.83;;
16272;SDS011;8244;50.044;9.006;2024-03-08T05:56:03;32.67;;;18.60;;
16272;SDS011;8244;50.044;9.006;2024-03-08T06:01:05;31.47;;;18.57;;
16272;SDS011;8244;50.044;9.006;2024-03-08T06:06:08;34.13;;;19.10;;
16272;SDS011;8244;50.044;9.006;2024-03-08T06:11:11;33.20;;;19.70;;
16272;SDS011;8244;50.044;9.006;2024-03-08T06:16:14;35.30;;;20.30;;
16272;SDS011;8244;50.044;9.006;2024-03-08T06:21:16;35.77;;;18.67;;
16272;SDS011;8244;50.044;9.006;2024-03-08T06:26:19;32.47;;;18.27;;
16272;SDS011;8244;50.044;9.006;2024-03-08T06:31:22;33.73;;;19.20;;
16272;SDS011;8244;50.044;9.006;2024-03-08T06:36:24;31.27;;;18.63;;
16272;SDS011;8244;50.044;9.006;2024-03-08T06:41:27;30.43;;;18.00;;
16272;SDS011;8244;50.044;9.006;2024-03-08T06:46:29;29.47;;;16.63;;
16272;SDS011;8244;50.044;9.006;2024-03-08T06:51:31;30.10;;;17.90;;
16272;SDS011;8244;50.044;9.006;2024-03-08T06:56:34;29.63;;;18.53;;
16272;SDS011;8244;50.044;9.006;2024-03-08T07:01:35;30.23;;;17.03;;
16272;SDS011;8244;50.044;9.006;2024-03-08T07:06:38;29.43;;;18.43;;
16272;SDS011;8244;50.044;9.006;2024-03-08T07:11:42;28.17;;;16.67;;
16272;SDS011;8244;50.044;9.006;2024-03-08T07:16:44;29.83;;;18.30;;
16272;SDS011;8244;50.044;9.006;2024-03-08T07:21:46;26.73;;;16.93;;
16272;SDS011;8244;50.044;9.006;2024-03-08T07:26:49;29.63;;;18.30;;
16272;SDS011;8244;50.044;9.006;2024-03-08T07:31:52;27.40;;;16.80;;
16272;SDS011;8244;50.044;9.006;2024-03-08T07:37:02;26.27;;;16.47;;
16272;SDS011;8244;50.044;9.006;2024-03-08T07:42:06;28.40;;;17.37;;
16272;SDS011;8244;50.044;9.006;2024-03-08T07:47:08;26.13;;;16.27;;
16272;SDS011;8244;50.044;9.006;2024-03-08T07:52:10;29.77;;;17.13;;
16272;SDS011;8244;50.044;9.006;2024-03-08T07:57:17;26.88;;;16.23;;
16272;SDS011;8244;50.044;9.006;2024-03-08T08:02:19;25.35;;;15.82;;
16272;SDS011;8244;50.044;9.006;2024-03-08T08:07:21;25.20;;;16.13;;
16272;SDS011;8244;50.044;9.006;2024-03-08T08:12:24;24.40;;;15.77;;
16272;SDS011;8244;50.044;9.006;2024-03-08T08:17:26;24.88;;;15.95;;
16272;SDS011;8244;50.044;9.006;2024-03-08T08:22:28;24.67;;;15.50;;
16272;SDS011;8244;50.044;9.006;2024-03-08T08:27:31;22.63;;;15.20;;
16272;SDS011;8244;50.044;9.006;2024-03-08T08:32:33;23.55;;;15.32;;
16272;SDS011;8244;50.044;9.006;2024-03-08T08:37:38;22.52;;;13.80;;
16272;SDS011;8244;50.044;9.006;2024-03-08T08:42:41;20.50;;;14.02;;
16272;SDS011;8244;50.044;9.006;2024-03-08T08:47:43;20.65;;;14.25;;
16272;SDS011;8244;50.044;9.006;2024-03-08T08:52:47;20.95;;;13.57;;
16272;SDS011;8244;50.044;9.006;2024-03-08T08:57:50;22.17;;;14.50;;
16272;SDS011;8244;50.044;9.006;2024-03-08T09:02:52;21.25;;;13.90;;
16272;SDS011;8244;50.044;9.006;2024-03-08T09:07:55;21.40;;;13.85;;
16272;SDS011;8244;50.044;9.006;2024-03-08T09:12:59;20.08;;;13.50;;
16272;SDS011;8244;50.044;9.006;2024-03-08T09:18:04;19.90;;;13.40;;
16272;SDS011;8244;50.044;9.006;2024-03-08T09:23:06;20.70;;;13.40;;
16272;SDS011;8244;50.044;9.006;2024-03-08T09:28:10;19.33;;;13.55;;
16272;SDS011;8244;50.044;9.006;2024-03-08T09:33:12;20.70;;;12.85;;
16272;SDS011;8244;50.044;9.006;2024-03-08T09:38:19;17.70;;;12.57;;
16272;SDS011;8244;50.044;9.006;2024-03-08T09:43:24;18.88;;;12.05;;
16272;SDS011;8244;50.044;9.006;2024-03-08T09:48:26;19.15;;;12.80;;
16272;SDS011;8244;50.044;9.006;2024-03-08T09:53:29;19.98;;;13.35;;
16272;SDS011;8244;50.044;9.006;2024-03-08T09:58:32;20.55;;;13.38;;
16272;SDS011;8244;50.044;9.006;2024-03-08T10:03:52;18.00;;;12.40;;
16272;SDS011;8244;50.044;9.006;2024-03-08T10:08:57;19.10;;;12.38;;
16272;SDS011;8244;50.044;9.006;2024-03-08T10:14:00;17.45;;;12.27;;
16272;SDS011;8244;50.044;9.006;2024-03-08T10:19:02;19.77;;;11.45;;
16272;SDS011;8244;50.044;9.006;2024-03-08T10:24:05;17.48;;;11.38;;
16272;SDS011;8244;50.044;9.006;2024-03-08T10:29:15;18.08;;;11.45;;
16272;SDS011;8244;50.044;9.006;2024-03-08T10:34:17;17.88;;;11.77;;
16272;SDS011;8244;50.044;9.006;2024-03-08T10:39:21;17.85;;;11.80;;
16272;SDS011;8244;50.044;9.006;2024-03-08T10:44:30;17.08;;;11.23;;
16272;SDS011;8244;50.044;9.006;2024-03-08T10:49:44;18.02;;;11.70;;
16272;SDS011;8244;50.044;9.006;2024-03-08T10:54:55;17.98;;;11.68;;
16272;SDS011;8244;50.044;9.006;2024-03-08T11:00:00;17.17;;;11.38;;
16272;SDS011;8244;50.044;9.006;2024-03-08T11:05:09;18.42;;;12.05;;
16272;SDS011;8244;50.044;9.006;2024-03-08T11:10:18;20.08;;;12.07;;
16272;SDS011;8244;50.044;9.006;2024-03-08T11:15:22;16.70;;;11.40;;
16272;SDS011;8244;50.044;9.006;2024-03-08T11:20:27;17.38;;;12.07;;
16272;SDS011;8244;50.044;9.006;2024-03-08T11:25:33;18.85;;;11.65;;
16272;SDS011;8244;50.044;9.006;2024-03-08T11:30:43;15.77;;;11.13;;
16272;SDS011;8244;50.044;9.006;2024-03-08T11:35:46;17.90;;;11.95;;
16272;SDS011;8244;50.044;9.006;2024-03-08T11:40:48;16.73;;;11.82;;
16272;SDS011;8244;50.044;9.006;2024-03-08T11:45:59;20.23;;;13.10;;
16272;SDS011;8244;50.044;9.006;2024-03-08T11:51:09;18.05;;;11.63;;
16272;SDS011;8244;50.044;9.006;2024-03-08T11:56:13;17.30;;;12.02;;
16272;SDS011;8244;50.044;9.006;2024-03-08T12:01:17;17.58;;;12.30;;
16272;SDS011;8244;50.044;9.006;2024-03-08T12:06:19;18.20;;;12.20;;
16272;SDS011;8244;50.044;9.006;2024-03-08T12:11:20;17.60;;;10.70;;
16272;SDS011;8244;50.044;9.006;2024-03-08T12:16:27;18.85;;;11.77;;
16272;SDS011;8244;50.044;9.006;2024-03-08T12:21:30;20.13;;;12.07;;
16272;SDS011;8244;50.044;9.006;2024-03-08T12:26:35;17.23;;;11.23;;
16272;SDS011;8244;50.044;9.006;2024-03-08T12:31:39;18.52;;;12.88;;
16272;SDS011;8244;50.044;9.006;2024-03-08T12:36:46;18.27;;;12.50;;
16272;SDS011;8244;50.044;9.006;2024-03-08T12:41:49;16.52;;;11.85;;
16272;SDS011;8244;50.044;9.006;2024-03-08T12:46:53;18.70;;;12.07;;
16272;SDS011;8244;50.044;9.006;2024-03-08T12:51:54;17.92;;;11.27;;
16272;SDS011;8244;50.044;9.006;2024-03-08T12:56:56;17.75;;;12.43;;
16272;SDS011;8244;50.044;9.006;2024-03-08T13:02:00;20.20;;;11.25;;
16272;SDS011;8244;50.044;9.006;2024-03-08T13:07:01;17.27;;;12.13;;
16272;SDS011;8244;50.044;9.006;2024-03-08T13:12:04;17.90;;;10.82;;
16272;SDS011;8244;50.044;9.006;2024-03-08T13:17:08;18.35;;;12.23;;
16272;SDS011;8244;50.044;9.006;2024-03-08T13:22:11;18.05;;;11.93;;
16272;SDS011;8244;50.044;9.006;2024-03-08T13:27:13;16.83;;;11.93;;
16272;SDS011;8244;50.044;9.006;2024-03-08T13:32:20;18.30;;;12.20;;
16272;SDS011;8244;50.044;9.006;2024-03-08T13:37:23;19.13;;;12.48;;
16272;SDS011;8244;50.044;9.006;2024-03-08T13:42:25;19.15;;;11.93;;
16272;SDS011;8244;50.044;9.006;2024-03-08T13:47:29;19.15;;;12.50;;
16272;SDS011;8244;50.044;9.006;2024-03-08T13:52:31;16.83;;;11.52;;
16272;SDS011;8244;50.044;9.006;2024-03-08T13:57:34;19.27;;;12.35;;
16272;SDS011;8244;50.044;9.006;2024-03-08T14:02:37;16.50;;;11.95;;
16272;SDS011;8244;50.044;9.006;2024-03-08T14:07:40;19.00;;;13.38;;
16272;SDS011;8244;50.044;9.006;2024-03-08T14:12:42;18.55;;;12.90;;
16272;SDS011;8244;50.044;9.006;2024-03-08T14:17:51;17.90;;;11.80;;
16272;SDS011;8244;50.044;9.006;2024-03-08T14:22:53;19.17;;;11.48;;
16272;SDS011;8244;50.044;9.006;2024-03-08T14:27:56;17.45;;;11.75;;
16272;SDS011;8244;50.044;9.006;2024-03-08T14:33:03;20.10;;;11.55;;
16272;SDS011;8244;50.044;9.006;2024-03-08T14:38:08;18.92;;;11.88;;
16272;SDS011;8244;50.044;9.006;2024-03-08T14:43:10;18.73;;;11.32;;
16272;SDS011;8244;50.044;9.006;2024-03-08T14:48:14;16.63;;;10.65;;
16272;SDS011;8244;50.044;9.006;2024-03-08T14:53:16;15.43;;;10.68;;
16272;SDS011;8244;50.044;9.006;2024-03-08T14:58:18;16.77;;;10.93;;
16272;SDS011;8244;50.044;9.006;2024-03-08T15:03:22;17.27;;;10.48;;
16272;SDS011;8244;50.044;9.006;2024-03-08T15:08:26;17.17;;;10.65;;
16272;SDS011;8244;50.044;9.006;2024-03-08T15:13:28;16.60;;;10.52;;
16272;SDS011;8244;50.044;9.006;2024-03-08T15:18:40;16.08;;;9.80;;
16272;SDS011;8244;50.044;9.006;2024-03-08T15:23:46;15.68;;;10.10;;
16272;SDS011;8244;50.044;9.006;2024-03-08T15:28:52;15.27;;;10.55;;
16272;SDS011;8244;50.044;9.006;2024-03-08T15:33:55;18.70;;;9.32;;
16272;SDS011;8244;50.044;9.006;2024-03-08T15:39:00;15.10;;;8.75;;
16272;SDS011;8244;50.044;9.006;2024-03-08T15:44:03;15.27;;;9.05;;
16272;SDS011;8244;50.044;9.006;2024-03-08T15:49:06;14.55;;;8.82;;
16272;SDS011;8244;50.044;9.006;2024-03-08T15:54:08;13.80;;;9.18;;
16272;SDS011;8244;50.044;9.006;2024-03-08T15:59:10;14.00;;;8.57;;
16272;SDS011;8244;50.044;9.006;2024-03-08T16:04:13;14.77;;;8.50;;
16272;SDS011;8244;50.044;9.006;2024-03-08T16:09:15;16.17;;;8.32;;
16272;SDS011;8244;50.044;9.006;2024-03-08T16:14:17;13.68;;;8.30;;
16272;SDS011;8244;50.044;9.006;2024-03-08T16:19:21;13.98;;;7.75;;
16272;SDS011;8244;50.044;9.006;2024-03-08T16:24:24;12.23;;;7.45;;
16272;SDS011;8244;50.044;9.006;2024-03-08T16:29:26;12.95;;;8.10;;
16272;SDS011;8244;50.044;9.006;2024-03-08T16:34:30;13.35;;;7.57;;
16272;SDS011;8244;50.044;9.006;2024-03-08T16:39:35;11.90;;;7.20;;
16272;SDS011;8244;50.044;9.006;2024-03-08T16:44:37;12.82;;;8.05;;
16272;SDS011;8244;50.044;9.006;2024-03-08T16:49:42;12.90;;;8.30;;
16272;SDS011;8244;50.044;9.006;2024-03-08T16:54:44;12.27;;;7.35;;
16272;SDS011;8244;50.044;9.006;2024-03-08T16:59:46;12.35;;;7.75;;
16272;SDS011;8244;50.044;9.006;2024-03-08T17:04:49;15.73;;;8.20;;
16272;SDS011;8244;50.044;9.006;2024-03-08T17:09:51;15.52;;;8.23;;
16272;SDS011;8244;50.044;9.006;2024-03-08T17:14:53;13.63;;;8.70;;
16272;SDS011;8244;50.044;9.006;2024-03-08T17:19:56;16.10;;;9.57;;
16272;SDS011;8244;50.044;9.006;2024-03-08T17:24:58;15.10;;;9.32;;
16272;SDS011;8244;50.044;9.006;2024-03-08T17:29:59;18.52;;;10.50;;
16272;SDS011;8244;50.044;9.006;2024-03-08T17:35:08;18.20;;;10.27;;
16272;SDS011;8244;50.044;9.006;2024-03-08T17:40:12;19.02;;;10.60;;
16272;SDS011;8244;50.044;9.006;2024-03-08T17:45:17;18.67;;;11.27;;
16272;SDS011;8244;50.044;9.006;2024-03-08T17:50:22;16.73;;;10.75;;
16272;SDS011;8244;50.044;9.006;2024-03-08T17:55:24;19.58;;;11.73;;
16272;SDS011;8244;50.044;9.006;2024-03-08T18:00:26;19.17;;;11.25;;
16272;SDS011;8244;50.044;9.006;2024-03-08T18:05:30;20.08;;;11.30;;
16272;SDS011;8244;50.044;9.006;2024-03-08T18:10:36;18.25;;;11.23;;
16272;SDS011;8244;50.044;9.006;2024-03-08T18:15:41;19.30;;;10.73;;
16272;SDS011;8244;50.044;9.006;2024-03-08T18:20:45;21.10;;;10.55;;
16272;SDS011;8244;50.044;9.006;2024-03-08T18:25:47;17.05;;;10.20;;
16272;SDS011;8244;50.044;9.006;2024-03-08T18:30:50;17.55;;;10.43;;
16272;SDS011;8244;50.044;9.006;2024-03-08T18:35:55;18.30;;;10.00;;
16272;SDS011;8244;50.044;9.006;2024-03-08T18:40:58;14.60;;;9.23;;
16272;SDS011;8244;50.044;9.006;2024-03-08T18:46:01;16.00;;;9.02;;
16272;SDS011;8244;50.044;9.006;2024-03-08T18:51:05;15.98;;;9.45;;
16272;SDS011;8244;50.044;9.006;2024-03-08T18:56:07;17.73;;;9.27;;
16272;SDS011;8244;50.044;9.006;2024-03-08T19:01:09;17.80;;;9.68;;
16272;SDS011;8244;50.044;9.006;2024-03-08T19:06:12;15.80;;;9.55;;
16272;SDS011;8244;50.044;9.006;2024-03-08T19:11:17;12.95;;;8.02;;
16272;SDS011;8244;50.044;9.006;2024-03-08T19:16:19;15.00;;;8.50;;
16272;SDS011;8244;50.044;9.006;2024-03-08T19:21:24;15.40;;;8.25;;
16272;SDS011;8244;50.044;9.006;2024-03-08T19:26:26;13.68;;;8.13;;
16272;SDS011;8244;50.044;9.006;2024-03-08T19:31:27;14.98;;;8.75;;
16272;SDS011;8244;50.044;9.006;2024-03-08T19:36:31;13.90;;;8.73;;
16272;SDS011;8244;50.044;9.006;2024-03-08T19:41:33;14.10;;;8.43;;
16272;SDS011;8244;50.044;9.006;2024-03-08T19:46:35;16.67;;;8.23;;
16272;SDS011;8244;50.044;9.006;2024-03-08T19:51:42;14.07;;;8.77;;
16272;SDS011;8244;50.044;9.006;2024-03-08T19:56:46;13.95;;;8.48;;
16272;SDS011;8244;50.044;9.006;2024-03-08T20:01:48;13.90;;;8.25;;
16272;SDS011;8244;50.044;9.006;2024-03-08T20:06:52;12.88;;;8.27;;
16272;SDS011;8244;50.044;9.006;2024-03-08T20:11:54;16.45;;;8.35;;
16272;SDS011;8244;50.044;9.006;2024-03-08T20:16:56;15.80;;;8.95;;
16272;SDS011;8244;50.044;9.006;2024-03-08T20:21:59;16.65;;;9.15;;
16272;SDS011;8244;50.044;9.006;2024-03-08T20:27:01;16.25;;;9.07;;
16272;SDS011;8244;50.044;9.006;2024-03-08T20:32:03;14.88;;;8.70;;
16272;SDS011;8244;50.044;9.006;2024-03-08T20:37:06;18.15;;;9.05;;
16272;SDS011;8244;50.044;9.006;2024-03-08T20:42:09;14.25;;;9.13;;
16272;SDS011;8244;50.044;9.006;2024-03-08T20:47:11;14.25;;;8.93;;
16272;SDS011;8244;50.044;9.006;2024-03-08T20:52:14;15.85;;;9.27;;
16272;SDS011;8244;50.044;9.006;2024-03-08T20:57:16;15.25;;;9.13;;
16272;SDS011;8244;50.044;9.006;2024-03-08T21:02:18;15.07;;;9.38;;
16272;SDS011;8244;50.044;9.006;2024-03-08T21:07:21;16.20;;;9.55;;
16272;SDS011;8244;50.044;9.006;2024-03-08T21:12:23;16.73;;;9.20;;
16272;SDS011;8244;50.044;9.006;2024-03-08T21:17:25;15.43;;;9.57;;
16272;SDS011;8244;50.044;9.006;2024-03-08T21:22:29;17.05;;;9.63;;
16272;SDS011;8244;50.044;9.006;2024-03-08T21:27:30;16.42;;;10.30;;
16272;SDS011;8244;50.044;9.006;2024-03-08T21:32:32;15.70;;;9.90;;
16272;SDS011;8244;50.044;9.006;2024-03-08T21:37:35;17.73;;;9.82;;
16272;SDS011;8244;50.044;9.006;2024-03-08T21:42:37;15.57;;;9.88;;
16272;SDS011;8244;50.044;9.006;2024-03-08T21:47:40;16.35;;;9.93;;
16272;SDS011;8244;50.044;9.006;2024-03-08T21:52:44;16.17;;;9.93;;
16272;SDS011;8244;50.044;9.006;2024-03-08T21:57:46;16.52;;;10.40;;
16272;SDS011;8244;50.044;9.006;2024-03-08T22:02:50;16.52;;;10.30;;
16272;SDS011;8244;50.044;9.006;2024-03-08T22:07:54;16.35;;;10.60;;
16272;SDS011;8244;50.044;9.006;2024-03-08T22:12:56;17.23;;;10.85;;
16272;SDS011;8244;50.044;9.006;2024-03-08T22:17:58;16.80;;;9.55;;
16272;SDS011;8244;50.044;9.006;2024-03-08T22:23:01;18.75;;;10.45;;
16272;SDS011;8244;50.044;9.006;2024-03-08T22:28:06;16.60;;;10.35;;
16272;SDS011;8244;50.044;9.006;2024-03-08T22:33:07;18.30;;;10.80;;
16272;SDS011;8244;50.044;9.006;2024-03-08T22:38:11;18.08;;;10.48;;
16272;SDS011;8244;50.044;9.006;2024-03-08T22:43:12;16.90;;;10.32;;
16272;SDS011;8244;50.044;9.006;2024-03-08T22:48:16;17.33;;;10.68;;
16272;SDS011;8244;50.044;9.006;2024-03-08T22:53:19;17.80;;;10.80;;
16272;SDS011;8244;50.044;9.006;2024-03-08T22:58:21;25.48;;;13.25;;
16272;SDS011;8244;50.044;9.006;2024-03-08T23:03:23;18.45;;;10.77;;
16272;SDS011;8244;50.044;9.006;2024-03-08T23:08:26;17.90;;;10.90;;
16272;SDS011;8244;50.044;9.006;2024-03-08T23:13:29;17.90;;;10.48;;
16272;SDS011;8244;50.044;9.006;2024-03-08T23:18:34;19.10;;;11.40;;
16272;SDS011;8244;50.044;9.006;2024-03-08T23:23:37;19.20;;;11.43;;
16272;SDS011;8244;50.044;9.006;2024-03-08T23:28:39;18.20;;;10.85;;
16272;SDS011;8244;50.044;9.006;2024-03-08T23:33:41;20.70;;;11.25;;
16272;SDS011;8244;50.044;9.006;2024-03-08T23:38:47;18.00;;;11.10;;
16272;SDS011;8244;50.044;9.006;2024-03-08T23:43:50;20.38;;;11.45;;
16272;SDS011;8244;50.044;9.006;2024-03-08T23:48:53;19.10;;;11.97;;
16272;SDS011;8244;50.044;9.006;2024-03-08T23:53:59;17.13;;;11.00;;
16272;SDS011;8244;50.044;9.006;2024-03-08T23:59:04;18.48;;;11.25;;
